Chicago Lansing, IL

3:14 AM CDT on October 23, 2017 (GMT -0500)
Lansing Municipal

Weather History for KIGQ - November, 2013

Change the Weather History Date:

Wednesday, November 20, 2013

  Actual Average (KGYY) Record (KGYY)
Temperature  
Mean Temperature 36 °F -  
Max Temperature 43 °F 42 °F 72 °F (1953)
Min Temperature 30 °F 30 °F 16 °F (1955)
Degree Days  
Heating Degree Days 28    
Moisture  
Dew Point 29 °F    
Average Humidity 72    
Maximum Humidity 92    
Minimum Humidity 54    
Precipitation  
Precipitation 0.29 in - - ()
Sea Level Pressure  
Sea Level Pressure 30.22 in    
Wind  
Wind Speed 9 mph (SSE)    
Max Wind Speed 20 mph    
Max Gust Speed 26 mph    
Visibility 9 miles    
Events Rain    
Averages and records for this station are not official NWS values.
T = Trace of Precipitation, MM = Missing Value Source: NWS Daily Summary

Daily Weather History Graph

Daily Weather History Graph

Search for Another Location

Airport or City:

Trip Planner

Search our weather history database for the weather conditions in past years. The results will help you decide how hot, cold, wet, or windy it might be!

Date:

Astronomy

Nov. 20, 2013 Rise Set
Actual Time 6:45 AM CST 4:26 PM CST
Civil Twilight 6:15 AM CST 4:56 PM CST
Nautical Twilight 5:41 AM CST 5:30 PM CST
Astronomical Twilight 5:08 AM CST 6:03 PM CST
Moon 7:08 PM CST (11/20) 9:10 AM CST (11/20)
Length of Visible Light 10h 41m
Length of Day
9h 40m
Waning Gibbous, 91% of the Moon is Illuminated
Nov 20
Waning Gibbous
Nov 25
Last Quarter
Dec 2
New
Dec 9
First Quarter
Dec 17
Full

Hourly Weather History & Observations

Time (CST) Temp. Windchill Dew Point Humidity Pressure Visibility Wind Dir Wind Speed Gust Speed Precip Events Conditions
12:15 AM 33.3 °F 25.7 °F 26.6 °F 77% 30.30 in 10.0 mi SSE 9.2 mph - N/A   Clear
12:35 AM 33.1 °F 26.1 °F 26.4 °F 77% 30.30 in 10.0 mi SSE 8.1 mph - N/A   Clear
12:55 AM 32.9 °F 25.9 °F 26.2 °F 76% 30.30 in 10.0 mi SSE 8.1 mph - N/A   Clear
1:15 AM 32.7 °F 26.4 °F 25.7 °F 75% 30.30 in 10.0 mi SE 6.9 mph - N/A   Clear
1:35 AM 32.2 °F 25.0 °F 25.7 °F 77% 30.29 in 10.0 mi SSE 8.1 mph - N/A   Clear
1:55 AM 32.4 °F 26.0 °F 25.3 °F 75% 30.30 in 10.0 mi SE 6.9 mph - N/A   Clear
2:15 AM 32.7 °F 25.7 °F 25.2 °F 74% 30.30 in 10.0 mi SE 8.1 mph - N/A   Clear
2:35 AM 32.2 °F 25.8 °F 25.0 °F 75% 30.30 in 10.0 mi SE 6.9 mph - N/A   Clear
2:55 AM 31.8 °F 25.4 °F 24.6 °F 75% 30.30 in 10.0 mi SSE 6.9 mph - N/A   Clear
3:15 AM 31.6 °F 26.0 °F 24.8 °F 76% 30.30 in 10.0 mi SSE 5.8 mph - N/A   Clear
3:35 AM 31.1 °F 24.5 °F 24.8 °F 77% 30.30 in 10.0 mi SSE 6.9 mph - N/A   Clear
3:55 AM 30.4 °F 23.6 °F 24.6 °F 79% 30.30 in 10.0 mi SSE 6.9 mph - N/A   Clear
4:15 AM 30.6 °F 23.8 °F 24.6 °F 79% 30.29 in 10.0 mi SE 6.9 mph - N/A   Clear
4:35 AM 30.7 °F 23.3 °F 24.8 °F 79% 30.29 in 10.0 mi SE 8.1 mph - N/A   Clear
4:55 AM 31.1 °F 24.5 °F 24.8 °F 77% 30.29 in 10.0 mi SSE 6.9 mph - N/A   Clear
5:15 AM 30.9 °F 25.2 °F 24.3 °F 76% 30.29 in 10.0 mi SE 5.8 mph - N/A   Clear
5:35 AM 30.6 °F 23.1 °F 24.1 °F 77% 30.29 in 10.0 mi SE 8.1 mph - N/A   Clear
5:55 AM 30.6 °F 23.1 °F 24.1 °F 77% 30.28 in 10.0 mi SE 8.1 mph - N/A   Clear
6:15 AM 30.4 °F 22.9 °F 23.9 °F 77% 30.28 in 10.0 mi SE 8.1 mph - N/A   Clear
6:35 AM 30.0 °F 25.2 °F 23.9 °F 78% 30.28 in 10.0 mi SE 4.6 mph - N/A   Clear
6:55 AM 30.6 °F 24.7 °F 23.9 °F 76% 30.28 in 10.0 mi East 5.8 mph - N/A   Clear
7:15 AM 30.9 °F 25.2 °F 23.9 °F 75% 30.29 in 10.0 mi NE 5.8 mph - N/A   Clear
7:35 AM 31.5 °F 25.8 °F 24.3 °F 75% 30.28 in 10.0 mi ENE 5.8 mph - N/A   Clear
7:55 AM 32.2 °F 25.0 °F 24.8 °F 74% 30.27 in 10.0 mi SE 8.1 mph - N/A   Clear
8:15 AM 34.0 °F 25.0 °F 24.8 °F 69% 30.27 in 10.0 mi SE 12.7 mph - N/A   Clear
8:35 AM 34.7 °F 25.1 °F 25.0 °F 68% 30.28 in 10.0 mi SSE 15.0 mph 21.9 mph N/A   Clear
8:55 AM 35.1 °F 25.9 °F 25.0 °F 67% 30.27 in 10.0 mi SSE 13.8 mph 20.7 mph N/A   Clear
9:15 AM 36.5 °F 29.2 °F 25.5 °F 64% 30.28 in 10.0 mi SSE 10.4 mph - N/A   Clear
9:35 AM 37.6 °F 27.7 °F 25.5 °F 62% 30.28 in 10.0 mi SSE 18.4 mph 23.0 mph N/A   Clear
9:55 AM 38.5 °F 28.9 °F 25.7 °F 60% 30.28 in 10.0 mi SSE 18.4 mph 24.2 mph N/A   Clear
10:15 AM 38.8 °F 29.1 °F 26.1 °F 60% 30.27 in 10.0 mi SSE 19.6 mph 26.5 mph N/A   Clear
10:35 AM 40.3 °F 31.9 °F 26.2 °F 57% 30.26 in 10.0 mi SSE 16.1 mph 25.3 mph N/A   Clear
10:55 AM 41.5 °F 33.8 °F 26.6 °F 55% 30.26 in 10.0 mi SSE 15.0 mph - N/A   Clear
11:15 AM 40.8 °F 32.9 °F 26.6 °F 57% 30.24 in 10.0 mi SSE 15.0 mph - N/A   Clear
11:35 AM 41.0 °F 33.1 °F 27.0 °F 57% 30.23 in 10.0 mi SE 15.0 mph 19.6 mph N/A   Clear
11:55 AM 42.8 °F 35.8 °F 27.5 °F 55% 30.21 in 10.0 mi South 13.8 mph - N/A   Clear
12:15 PM 41.0 °F 34.3 °F 26.8 °F 57% 30.21 in 10.0 mi SE 11.5 mph - N/A   Clear
12:35 PM 42.8 °F 36.6 °F 27.5 °F 55% 30.20 in 10.0 mi SSE 11.5 mph - N/A   Clear
12:55 PM 43.3 °F 38.1 °F 27.7 °F 54% 30.19 in 10.0 mi SSE 9.2 mph - N/A   Clear
1:15 PM 43.7 °F 37.7 °F 28.4 °F 55% 30.18 in 10.0 mi SSE 11.5 mph - N/A   Clear
1:35 PM 42.8 °F 38.0 °F 28.0 °F 56% 30.16 in 10.0 mi SE 8.1 mph - N/A   Clear
1:55 PM 42.1 °F 36.6 °F 28.0 °F 58% 30.16 in 10.0 mi South 9.2 mph - N/A   Scattered Clouds
2:15 PM 42.3 °F 37.3 °F 28.4 °F 58% 30.16 in 10.0 mi NE 8.1 mph - N/A   Clear
2:35 PM 42.8 °F 37.5 °F 29.1 °F 58% 30.15 in 10.0 mi SSE 9.2 mph - N/A   Scattered Clouds
2:55 PM 42.4 °F 36.5 °F 28.9 °F 59% 30.15 in 10.0 mi South 10.4 mph - N/A   Scattered Clouds
3:15 PM 41.9 °F 36.3 °F 28.9 °F 60% 30.15 in 10.0 mi South 9.2 mph - N/A   Scattered Clouds
3:35 PM 41.4 °F 35.2 °F 29.5 °F 63% 30.15 in 10.0 mi SSE 10.4 mph - N/A   Scattered Clouds
3:55 PM 41.5 °F 37.8 °F 29.8 °F 63% 30.16 in 10.0 mi SSE 5.8 mph - N/A   Clear
4:15 PM 41.5 °F 37.8 °F 30.0 °F 64% 30.15 in 10.0 mi SSE 5.8 mph - N/A   Scattered Clouds
4:35 PM 41.9 °F 36.9 °F 30.0 °F 63% 30.15 in 10.0 mi SE 8.1 mph - N/A   Mostly Cloudy
4:55 PM 41.9 °F 35.9 °F 30.2 °F 63% 30.16 in 10.0 mi SSE 10.4 mph - N/A   Overcast
5:15 PM 41.9 °F 35.9 °F 30.2 °F 63% 30.16 in 10.0 mi SSE 10.4 mph - N/A   Overcast
5:35 PM 41.7 °F 36.1 °F 30.6 °F 65% 30.16 in 10.0 mi SSE 9.2 mph - N/A   Overcast
5:55 PM 40.8 °F 35.6 °F 32.0 °F 71% 30.15 in 10.0 mi SSE 8.1 mph - N/A Rain Light Rain
6:15 PM 40.3 °F 34.4 °F 32.4 °F 73% 30.13 in 10.0 mi SE 9.2 mph - N/A Rain Light Rain
6:35 PM 40.1 °F 32.4 °F 33.1 °F 76% 30.10 in 10.0 mi ESE 13.8 mph - N/A Rain Light Rain
6:55 PM 40.1 °F 33.2 °F 33.3 °F 77% 30.10 in 10.0 mi SE 11.5 mph - N/A Rain Light Rain
7:15 PM 40.5 °F 35.8 °F 33.1 °F 75% 30.13 in 10.0 mi SSE 6.9 mph - N/A Rain Light Rain
7:35 PM 40.5 °F 37.3 °F 33.6 °F 77% 30.13 in 10.0 mi South 4.6 mph - N/A Rain Light Rain
7:55 PM 40.5 °F 38.4 °F 34.0 °F 78% 30.15 in 10.0 mi South 3.5 mph - N/A Rain Light Rain
8:15 PM 40.6 °F 38.6 °F 34.3 °F 78% 30.17 in 10.0 mi WSW 3.5 mph - N/A Rain Light Rain
8:35 PM 39.9 °F 37.8 °F 35.1 °F 83% 30.17 in 5.0 mi SSW 3.5 mph - 0.03 in Rain Rain
8:55 PM 39.2 °F 34.2 °F 36.0 °F 88% 30.17 in 1.5 mi SSE 6.9 mph - 0.09 in Rain Rain
9:15 PM 39.2 °F 33.6 °F 36.1 °F 89% 30.15 in 2.5 mi SSE 8.1 mph - 0.10 in Rain Heavy Rain
9:35 PM 39.6 °F 37.4 °F 36.3 °F 88% 30.17 in 4.0 mi SW 3.5 mph - 0.15 in Rain Rain
9:55 PM 39.4 °F 37.2 °F 36.5 °F 89% 30.17 in 5.0 mi South 3.5 mph - 0.18 in Rain Rain
10:15 PM 39.4 °F 37.2 °F 36.7 °F 90% 30.15 in 7.0 mi SE 3.5 mph - N/A Rain Light Rain
10:35 PM 39.2 °F 37.0 °F 37.0 °F 92% 30.15 in 7.0 mi ESE 3.5 mph - N/A Rain Light Rain
10:55 PM 39.6 °F 36.3 °F 37.0 °F 91% 30.16 in 7.0 mi SE 4.6 mph - 0.01 in Rain Light Rain
11:15 PM 39.7 °F 34.9 °F 37.0 °F 90% 30.16 in 7.0 mi SE 6.9 mph - N/A Rain Rain
11:35 PM 40.1 °F 35.3 °F 36.9 °F 88% 30.15 in 7.0 mi SE 6.9 mph - N/A Rain Light Rain
11:55 PM 40.3 °F 36.3 °F 36.9 °F 88% 30.15 in 10.0 mi SE 5.8 mph - 0.01 in   Overcast